Time;durP1;ratioP1;P1;durP2;ratioP2;P2;SDS_P1;SDS_P2;PMS_P1;PMS_P2;Temp;Humidity;BMP_temperature;BMP_pressure;BME280_temperature;BME280_humidity;BME280_pressure;Samples;Min_cycle;Max_cycle;Signal;HPM_P1;HPM_P2
2021/08/19 00:02:10;;;;;;;30.00;16.85;;;;;;;16.48;100.00;101269.81;5062757;28;20530;-64
2021/08/19 00:04:36;;;;;;;32.33;16.80;;;;;;;16.49;100.00;101273.38;5063002;28;20029;-64
2021/08/19 00:07:02;;;;;;;30.70;15.75;;;;;;;16.48;100.00;101275.13;5065695;28;20543;-64
2021/08/19 00:09:27;;;;;;;30.58;16.83;;;;;;;16.46;100.00;101263.63;5063701;28;20468;-63
2021/08/19 00:11:53;;;;;;;28.73;14.95;;;;;;;16.50;100.00;101264.47;5064233;28;20050;-64
2021/08/19 00:14:18;;;;;;;30.67;16.15;;;;;;;16.46;100.00;101270.75;5065417;28;20460;-64
2021/08/19 00:16:43;;;;;;;30.58;15.93;;;;;;;16.43;100.00;101270.81;5062889;28;20097;-64
2021/08/19 00:19:09;;;;;;;30.52;17.00;;;;;;;16.40;100.00;101266.38;5065960;28;20490;-64
2021/08/19 00:21:34;;;;;;;31.25;17.13;;;;;;;16.36;100.00;101262.84;5062625;28;20040;-65
2021/08/19 00:23:59;;;;;;;31.77;18.98;;;;;;;16.33;100.00;101260.22;5064816;28;20021;-64
2021/08/19 00:26:25;;;;;;;34.90;18.15;;;;;;;16.25;100.00;101269.22;5063977;28;20029;-63
2021/08/19 00:28:50;;;;;;;33.95;19.70;;;;;;;16.15;100.00;101266.69;5063832;28;20032;-63
2021/08/19 00:31:16;;;;;;;38.45;22.27;;;;;;;15.98;100.00;101264.22;5064978;28;20020;-65
2021/08/19 00:33:43;;;;;;;37.28;22.35;;;;;;;15.91;100.00;101261.63;5062346;28;20021;-63
2021/08/19 00:36:08;;;;;;;39.15;23.55;;;;;;;15.85;100.00;101259.91;5062133;28;20028;-64
2021/08/19 00:38:34;;;;;;;39.38;24.27;;;;;;;15.80;100.00;101259.06;5065500;28;20016;-64
2021/08/19 00:40:59;;;;;;;42.15;25.05;;;;;;;15.77;100.00;101253.75;5063104;28;20025;-63
2021/08/19 00:43:24;;;;;;;39.35;23.90;;;;;;;15.76;100.00;101254.66;5063747;28;20025;-63
2021/08/19 00:45:50;;;;;;;42.92;26.48;;;;;;;15.75;100.00;101255.56;5064011;28;20070;-64
2021/08/19 00:48:15;;;;;;;41.78;25.75;;;;;;;15.75;100.00;101266.22;5062540;28;20021;-63
2021/08/19 00:50:43;;;;;;;41.08;26.27;;;;;;;15.75;100.00;101263.56;5065170;28;20543;-64
2021/08/19 00:53:09;;;;;;;40.58;25.83;;;;;;;15.71;100.00;101253.81;5062075;28;20048;-64
2021/08/19 00:55:34;;;;;;;43.47;27.85;;;;;;;15.70;100.00;101247.63;5065092;28;20028;-63
2021/08/19 00:58:00;;;;;;;42.78;28.23;;;;;;;15.70;100.00;101258.28;5062539;28;20028;-64
2021/08/19 01:00:25;;;;;;;42.45;27.13;;;;;;;15.71;100.00;101264.47;5063507;28;20028;-63
2021/08/19 01:02:54;;;;;;;43.00;27.55;;;;;;;15.70;100.00;101247.63;5064231;28;20024;-64
2021/08/19 01:05:27;;;;;;;41.90;27.20;;;;;;;15.73;100.00;101257.34;5062713;28;20028;-64
2021/08/19 01:07:52;;;;;;;43.42;26.90;;;;;;;15.73;100.00;101252.00;5063245;28;20478;-64
2021/08/19 01:10:18;;;;;;;40.47;26.63;;;;;;;15.74;100.00;101253.78;5062725;28;20021;-64
2021/08/19 01:12:45;;;;;;;42.20;26.10;;;;;;;15.73;100.00;101244.91;5064593;28;20031;-63
2021/08/19 01:15:12;;;;;;;42.90;27.27;;;;;;;15.74;100.00;101248.44;5061412;28;20024;-64
2021/08/19 01:17:37;;;;;;;40.47;24.92;;;;;;;15.74;100.00;101249.34;5061539;28;20049;-65
2021/08/19 01:20:04;;;;;;;40.53;25.17;;;;;;;15.76;100.00;101249.34;5064296;28;20066;-64
2021/08/19 01:22:30;;;;;;;39.78;24.75;;;;;;;15.75;100.00;101244.91;5062106;28;20036;-64
2021/08/19 01:24:55;;;;;;;40.65;24.48;;;;;;;15.74;100.00;101244.03;5063337;28;20025;-63
2021/08/19 01:27:22;;;;;;;40.10;24.17;;;;;;;15.77;100.00;101251.06;5063329;28;20083;-64
2021/08/19 01:29:49;;;;;;;40.90;24.17;;;;;;;15.77;100.00;101243.97;5061918;28;20029;-64
2021/08/19 01:32:15;;;;;;;39.67;24.08;;;;;;;15.77;100.00;101245.75;5064412;28;20107;-64
2021/08/19 01:34:41;;;;;;;38.38;23.30;;;;;;;15.79;100.00;101241.34;5060558;28;20078;-64
2021/08/19 01:37:07;;;;;;;41.53;22.75;;;;;;;15.79;100.00;101242.19;5064334;28;20024;-65
2021/08/19 01:39:34;;;;;;;38.42;23.52;;;;;;;15.78;100.00;101240.44;5061686;28;20017;-64
2021/08/19 01:41:59;;;;;;;41.20;24.98;;;;;;;15.79;100.00;101236.00;5063331;28;20029;-65
2021/08/19 01:44:25;;;;;;;41.20;23.50;;;;;;;15.82;100.00;101238.63;5062873;28;20035;-62
2021/08/19 01:47:02;;;;;;;39.08;23.13;;;;;;;15.83;100.00;101229.75;5062196;28;20045;-64
2021/08/19 01:49:29;;;;;;;40.65;24.38;;;;;;;15.84;100.00;101237.72;5062193;28;20031;-64
2021/08/19 01:51:54;;;;;;;41.03;24.38;;;;;;;15.87;100.00;101234.13;5062480;28;20025;-65
2021/08/19 01:54:22;;;;;;;41.38;24.13;;;;;;;15.86;100.00;101241.25;5063591;28;20486;-64
2021/08/19 01:56:47;;;;;;;42.17;24.35;;;;;;;15.84;100.00;101232.38;5061422;28;20465;-64
2021/08/19 01:59:12;;;;;;;38.65;23.67;;;;;;;15.85;100.00;101231.47;5064113;28;20027;-65
2021/08/19 02:01:38;;;;;;;38.17;22.98;;;;;;;15.88;100.00;101233.22;5061107;28;20032;-65
2021/08/19 02:04:04;;;;;;;40.00;24.17;;;;;;;15.84;100.00;101226.16;5063560;28;20444;-64
2021/08/19 02:06:29;;;;;;;38.17;22.58;;;;;;;15.84;100.00;101236.81;5061674;28;20024;-64
2021/08/19 02:08:55;;;;;;;39.55;23.25;;;;;;;15.87;100.00;101236.78;5062566;28;20040;-64
2021/08/19 02:11:20;;;;;;;39.10;23.45;;;;;;;15.84;100.00;101231.50;5063338;28;20027;-64
2021/08/19 02:13:46;;;;;;;42.88;23.45;;;;;;;15.82;100.00;101234.16;5061394;28;20022;-64
2021/08/19 02:16:11;;;;;;;37.03;21.63;;;;;;;15.85;100.00;101225.25;5064276;28;20017;-65
2021/08/19 02:18:37;;;;;;;37.30;21.80;;;;;;;15.84;100.00;101231.50;5060814;28;20040;-65
2021/08/19 02:21:02;;;;;;;40.22;23.40;;;;;;;15.84;100.00;101234.16;5063527;28;20394;-65
2021/08/19 02:23:28;;;;;;;40.55;23.13;;;;;;;15.81;100.00;101232.44;5062067;28;20029;-65
2021/08/19 02:25:53;;;;;;;40.83;23.67;;;;;;;15.83;100.00;101235.06;5062074;28;20488;-65
2021/08/19 02:28:19;;;;;;;43.33;24.48;;;;;;;15.81;100.00;101228.84;5063232;28;20435;-66
2021/08/19 02:30:44;;;;;;;40.38;25.02;;;;;;;15.81;100.00;101234.19;5060822;28;20017;-65
2021/08/19 02:33:10;;;;;;;40.97;24.67;;;;;;;15.81;100.00;101228.84;5064058;28;20482;-65
2021/08/19 02:35:35;;;;;;;39.45;22.70;;;;;;;15.79;100.00;101228.00;5060831;28;20541;-65
2021/08/19 02:38:06;;;;;;;41.42;24.90;;;;;;;15.78;100.00;101224.44;5063269;28;20025;-65
2021/08/19 02:40:31;;;;;;;40.08;23.70;;;;;;;15.80;100.00;101221.75;5061577;28;20023;-65
2021/08/19 02:42:56;;;;;;;42.60;25.52;;;;;;;15.78;100.00;101227.09;5062705;28;20021;-65
2021/08/19 02:45:22;;;;;;;39.88;24.17;;;;;;;15.78;100.00;101223.53;5063467;28;20013;-65
2021/08/19 02:47:48;;;;;;;45.40;26.75;;;;;;;15.77;100.00;101228.00;5065117;28;20048;-65
2021/08/19 02:50:14;;;;;;;45.58;27.25;;;;;;;15.77;100.00;101221.75;5067610;28;20102;-65
2021/08/19 02:52:40;;;;;;;41.47;26.80;;;;;;;15.76;100.00;101223.56;5064324;28;20036;-65
2021/08/19 02:55:06;;;;;;;43.28;25.30;;;;;;;15.76;100.00;101225.34;5067381;28;20426;-65
2021/08/19 02:57:32;;;;;;;43.75;26.27;;;;;;;15.76;100.00;101218.22;5065008;28;20503;-65
2021/08/19 02:59:57;;;;;;;43.63;27.40;;;;;;;15.75;100.00;101226.25;5065855;28;20025;-65
2021/08/19 03:02:23;;;;;;;44.95;27.65;;;;;;;15.72;100.00;101215.63;5066050;28;20460;-65
2021/08/19 03:04:49;;;;;;;46.15;28.40;;;;;;;15.71;100.00;101224.50;5064679;28;20063;-62
2021/08/19 03:07:14;;;;;;;48.13;28.65;;;;;;;15.69;100.00;101217.41;5067487;28;20036;-61
2021/08/19 03:09:39;;;;;;;46.58;28.92;;;;;;;15.71;100.00;101216.50;5063877;28;20489;-62
2021/08/19 03:12:06;;;;;;;48.50;31.10;;;;;;;15.66;100.00;101208.56;5066854;28;20032;-61
2021/08/19 03:14:32;;;;;;;44.47;27.83;;;;;;;15.67;100.00;101215.66;5064574;28;20016;-62
2021/08/19 03:16:57;;;;;;;46.38;27.65;;;;;;;15.66;100.00;101216.56;5065777;28;20104;-62
2021/08/19 03:19:23;;;;;;;46.20;28.50;;;;;;;15.67;100.00;101218.34;5065897;28;20095;-62
2021/08/19 03:21:48;;;;;;;47.00;29.27;;;;;;;15.66;100.00;101208.56;5064186;28;20030;-62
2021/08/19 03:24:14;;;;;;;45.95;30.42;;;;;;;15.66;100.00;101208.56;5067210;28;20069;-62
2021/08/19 03:26:40;;;;;;;46.42;29.10;;;;;;;15.64;100.00;101213.00;5063687;28;20025;-64
2021/08/19 03:29:05;;;;;;;45.20;29.30;;;;;;;15.63;100.00;101217.47;5066429;28;20028;-62
2021/08/19 03:31:30;;;;;;;44.97;28.90;;;;;;;15.62;100.00;101218.34;5064589;28;20032;-63
2021/08/19 03:33:56;;;;;;;46.67;29.50;;;;;;;15.63;100.00;101213.94;5065102;28;20033;-62
2021/08/19 03:36:23;;;;;;;45.55;28.67;;;;;;;15.62;100.00;101214.81;5065769;28;20463;-64
2021/08/19 03:38:48;;;;;;;49.58;31.25;;;;;;;15.59;100.00;101210.41;5064373;28;20029;-63
2021/08/19 03:41:13;;;;;;;47.38;29.38;;;;;;;15.58;100.00;101211.31;5066697;28;20020;-64
2021/08/19 03:43:39;;;;;;;44.80;30.65;;;;;;;15.59;100.00;101207.75;5063446;28;20025;-63
2021/08/19 03:46:04;;;;;;;48.40;29.42;;;;;;;15.57;100.00;101211.34;5066019;28;20129;-63
2021/08/19 03:48:30;;;;;;;46.28;29.00;;;;;;;15.57;100.00;101214.00;5064428;28;20031;-62
2021/08/19 03:50:56;;;;;;;43.78;27.77;;;;;;;15.57;100.00;101212.22;5064605;28;20025;-63
2021/08/19 03:53:21;;;;;;;47.63;29.83;;;;;;;15.58;100.00;101213.09;5065466;28;20057;-63
2021/08/19 03:55:46;;;;;;;45.72;27.52;;;;;;;15.57;100.00;101214.88;5063206;28;20017;-65
2021/08/19 03:58:12;;;;;;;45.05;28.20;;;;;;;15.64;100.00;101216.56;5066524;28;20027;-65
2021/08/19 04:00:37;;;;;;;46.33;28.20;;;;;;;15.58;100.00;101215.75;5063228;28;20353;-65
2021/08/19 04:03:03;;;;;;;43.70;28.05;;;;;;;15.56;100.00;101215.75;5065419;28;20091;-65
2021/08/19 04:05:28;;;;;;;45.83;28.23;;;;;;;15.58;100.00;101213.09;5064420;28;20105;-65
2021/08/19 04:07:53;;;;;;;46.72;27.83;;;;;;;15.53;100.00;101218.47;5063783;28;20039;-65
2021/08/19 04:10:20;;;;;;;48.38;28.77;;;;;;;15.52;100.00;101227.34;5065548;28;20031;-65
2021/08/19 04:12:46;;;;;;;46.70;28.85;;;;;;;15.52;100.00;101216.69;5063020;28;20035;-65
2021/08/19 04:15:11;;;;;;;48.50;28.55;;;;;;;15.51;100.00;101220.28;5065942;28;20013;-65
2021/08/19 04:17:38;;;;;;;45.72;28.58;;;;;;;15.48;100.00;101223.84;5063245;28;20032;-65
2021/08/19 04:20:04;;;;;;;48.38;29.88;;;;;;;15.49;100.00;101227.38;5065275;28;20067;-65
2021/08/19 04:22:29;;;;;;;47.80;28.05;;;;;;;15.52;100.00;101216.69;5063722;28;20364;-65
2021/08/19 04:24:55;;;;;;;45.88;29.13;;;;;;;15.50;100.00;101223.81;5063751;28;20044;-65
2021/08/19 04:27:20;;;;;;;47.13;28.50;;;;;;;15.50;100.00;101230.03;5064959;28;20470;-65
2021/08/19 04:29:46;;;;;;;48.63;29.52;;;;;;;15.47;100.00;101223.88;5062590;28;20025;-65
2021/08/19 04:32:11;;;;;;;47.60;29.52;;;;;;;15.44;100.00;101219.44;5065973;28;20486;-64
2021/08/19 04:34:37;;;;;;;48.55;30.23;;;;;;;15.44;100.00;101218.56;5062565;28;20025;-65
2021/08/19 04:37:02;;;;;;;46.38;29.25;;;;;;;15.44;100.00;101215.91;5064563;28;20029;-65
2021/08/19 04:39:28;;;;;;;48.13;29.85;;;;;;;15.43;100.00;101222.13;5063696;28;20029;-64
2021/08/19 04:41:53;;;;;;;48.13;30.40;;;;;;;15.43;100.00;101216.78;5063531;28;20021;-64
2021/08/19 04:44:18;;;;;;;48.25;30.67;;;;;;;15.44;100.00;101221.22;5064872;28;20016;-64
2021/08/19 04:46:44;;;;;;;52.80;31.55;;;;;;;15.43;100.00;101222.13;5062075;28;20076;-64
2021/08/19 04:49:09;;;;;;;50.20;30.20;;;;;;;15.46;100.00;101222.09;5061964;28;20490;-64
2021/08/19 04:51:35;;;;;;;49.03;30.20;;;;;;;15.45;100.00;101221.22;5064591;28;20471;-64
2021/08/19 04:54:02;;;;;;;50.50;31.58;;;;;;;15.45;100.00;101221.22;5062926;28;20483;-64
2021/08/19 04:56:29;;;;;;;53.78;32.08;;;;;;;15.46;100.00;101224.75;5063559;28;20025;-64
2021/08/19 04:58:55;;;;;;;51.20;32.45;;;;;;;15.46;100.00;101227.41;5063768;28;20028;-65
2021/08/19 05:01:20;;;;;;;49.75;31.52;;;;;;;15.47;100.00;101223.88;5062719;28;20027;-64
2021/08/19 05:03:45;;;;;;;51.53;32.67;;;;;;;15.48;100.00;101229.16;5065081;28;20099;-64
2021/08/19 05:06:11;;;;;;;54.08;33.55;;;;;;;15.47;100.00;101226.53;5061741;28;20426;-64
2021/08/19 05:08:36;;;;;;;55.75;33.20;;;;;;;15.49;100.00;101224.72;5063901;28;20467;-64
2021/08/19 05:11:01;;;;;;;53.80;33.08;;;;;;;15.49;100.00;101230.03;5062661;28;20072;-63
2021/08/19 05:13:27;;;;;;;53.53;34.83;;;;;;;15.48;100.00;101221.19;5063124;28;20379;-64
2021/08/19 05:15:52;;;;;;;53.03;33.45;;;;;;;15.50;100.00;101229.16;5064193;28;20100;-64
2021/08/19 05:18:17;;;;;;;54.50;33.75;;;;;;;15.51;100.00;101223.81;5061757;28;20025;-64
2021/08/19 05:20:43;;;;;;;52.70;32.92;;;;;;;15.52;100.00;101228.25;5064863;28;20035;-64
2021/08/19 05:23:09;;;;;;;54.85;34.50;;;;;;;15.53;100.00;101234.44;5061469;28;20040;-63
2021/08/19 05:25:34;;;;;;;55.08;34.00;;;;;;;15.57;100.00;101236.19;5063838;28;20052;-64
2021/08/19 05:27:59;;;;;;;53.45;33.70;;;;;;;15.56;100.00;101233.53;5062165;28;20033;-64
2021/08/19 05:30:24;;;;;;;55.33;33.75;;;;;;;15.59;100.00;101234.38;5063326;28;20464;-64
2021/08/19 05:32:50;;;;;;;53.08;34.28;;;;;;;15.61;100.00;101237.03;5063341;28;20431;-63
2021/08/19 05:35:15;;;;;;;53.53;33.83;;;;;;;15.65;100.00;101238.78;5062140;28;20468;-64
2021/08/19 05:37:40;;;;;;;53.80;33.10;;;;;;;15.64;100.00;101243.22;5064396;28;20093;-64
2021/08/19 05:40:06;;;;;;;53.25;34.15;;;;;;;15.67;100.00;101232.53;5061070;28;20060;-62
2021/08/19 05:42:32;;;;;;;51.90;33.53;;;;;;;15.69;100.00;101237.84;5064341;28;20075;-62
2021/08/19 05:44:57;;;;;;;51.45;32.42;;;;;;;15.70;100.00;101231.63;5062135;28;20032;-62
2021/08/19 05:47:23;;;;;;;51.47;31.92;;;;;;;15.73;100.00;101241.34;5062512;28;20396;-62
2021/08/19 05:49:48;;;;;;;53.00;33.35;;;;;;;15.75;100.00;101239.56;5066013;28;20482;-61
2021/08/19 05:52:16;;;;;;;51.08;31.98;;;;;;;15.78;100.00;101240.44;5071073;28;20028;-61
2021/08/19 05:54:42;;;;;;;56.67;32.60;;;;;;;15.80;100.00;101241.31;5071712;28;20113;-61
2021/08/19 05:57:08;;;;;;;56.47;33.90;;;;;;;15.84;100.00;101245.72;5071037;28;20483;-61
2021/08/19 05:59:34;;;;;;;55.08;34.35;;;;;;;15.86;100.00;101251.03;5071309;28;20029;-61
2021/08/19 06:01:59;;;;;;;47.50;31.77;;;;;;;15.91;100.00;101257.19;5071106;28;20019;-60
2021/08/19 06:04:25;;;;;;;53.92;32.63;;;;;;;15.89;100.00;101252.75;5071242;28;20024;-60
2021/08/19 06:06:50;;;;;;;52.55;32.47;;;;;;;15.89;100.00;101251.00;5070671;28;20028;-61
2021/08/19 06:09:15;;;;;;;51.88;32.10;;;;;;;15.90;100.00;101254.53;5071435;28;20428;-61
2021/08/19 06:11:41;;;;;;;52.50;32.92;;;;;;;15.91;100.00;101253.63;5071395;28;20467;-60
2021/08/19 06:14:06;;;;;;;51.38;32.15;;;;;;;15.91;100.00;101265.19;5070915;28;20024;-60
2021/08/19 06:16:32;;;;;;;49.63;31.50;;;;;;;15.91;100.00;101253.63;5070792;28;20025;-61
2021/08/19 06:18:59;;;;;;;50.65;31.63;;;;;;;15.86;100.00;101259.91;5071512;28;20013;-61
2021/08/19 06:21:25;;;;;;;52.70;32.65;;;;;;;15.87;100.00;101258.09;5075048;28;20113;-60
2021/08/19 06:23:50;;;;;;;51.17;30.88;;;;;;;15.89;100.00;101261.66;5075696;28;20080;-61
2021/08/19 06:26:16;;;;;;;51.92;30.63;;;;;;;15.91;100.00;101256.31;5074418;28;20107;-61
2021/08/19 06:28:41;;;;;;;52.53;32.45;;;;;;;15.93;100.00;101266.06;5075012;28;20112;-61
2021/08/19 06:31:07;;;;;;;50.25;32.22;;;;;;;15.91;100.00;101262.50;5073692;28;20037;-60
2021/08/19 06:33:32;;;;;;;51.55;31.90;;;;;;;15.92;100.00;101266.94;5074927;28;20038;-61
2021/08/19 06:35:57;;;;;;;51.10;31.92;;;;;;;15.93;100.00;101260.72;5074578;28;20025;-61
2021/08/19 06:38:23;;;;;;;47.35;31.15;;;;;;;15.92;100.00;101258.94;5075193;28;20028;-62
2021/08/19 06:40:48;;;;;;;50.80;32.00;;;;;;;15.93;100.00;101265.16;5074408;28;20200;-60
2021/08/19 06:43:13;;;;;;;49.13;31.95;;;;;;;15.94;100.00;101269.59;5073433;28;20070;-61
2021/08/19 06:45:39;;;;;;;50.35;31.90;;;;;;;15.93;100.00;101260.72;5074135;28;20048;-60
2021/08/19 06:48:05;;;;;;;50.20;31.88;;;;;;;15.89;100.00;101271.41;5074290;28;20056;-61
2021/08/19 06:50:30;;;;;;;55.20;32.40;;;;;;;15.78;100.00;101271.50;5074589;28;20059;-60
2021/08/19 06:52:55;;;;;;;54.80;33.40;;;;;;;15.63;100.00;101278.75;5074315;28;20060;-60
2021/08/19 06:55:21;;;;;;;56.75;34.80;;;;;;;15.50;100.00;101277.13;5073436;28;20031;-61
2021/08/19 06:57:46;;;;;;;57.90;35.35;;;;;;;15.46;100.00;101280.69;5071933;28;20029;-60
2021/08/19 07:00:12;;;;;;;61.05;37.45;;;;;;;15.38;100.00;101277.22;5073966;28;20028;-60
2021/08/19 07:02:38;;;;;;;61.58;35.88;;;;;;;15.37;100.00;101271.00;5074160;28;20028;-61
2021/08/19 07:05:07;;;;;;;66.53;38.13;;;;;;;15.32;100.00;101279.03;5074336;28;20025;-61
2021/08/19 07:07:34;;;;;;;71.57;42.33;;;;;;;15.28;100.00;101277.28;5073758;28;20456;-61
2021/08/19 07:10:00;;;;;;;71.07;38.45;;;;;;;15.27;100.00;101271.97;5073311;28;20020;-61
2021/08/19 07:12:25;;;;;;;67.72;38.55;;;;;;;15.24;100.00;101272.88;5074228;28;20165;-60
2021/08/19 07:14:51;;;;;;;76.75;39.85;;;;;;;15.27;100.00;101282.63;5073866;28;20103;-60
2021/08/19 07:17:16;;;;;;;72.88;38.92;;;;;;;15.21;100.00;101283.56;5074003;28;20109;-61
2021/08/19 07:19:42;;;;;;;73.05;38.60;;;;;;;15.23;100.00;101275.56;5074255;28;20101;-59
2021/08/19 07:22:07;;;;;;;79.38;42.55;;;;;;;15.20;100.00;101279.13;5073549;28;20032;-61
2021/08/19 07:24:33;;;;;;;72.13;40.60;;;;;;;15.22;100.00;101284.44;5073254;28;20107;-60
2021/08/19 07:26:58;;;;;;;79.82;42.05;;;;;;;15.23;100.00;101276.47;5060859;28;20495;-61
2021/08/19 07:29:24;;;;;;;74.15;40.92;;;;;;;15.21;100.00;101272.91;5065282;28;20024;-61
2021/08/19 07:31:49;;;;;;;70.45;39.97;;;;;;;15.21;100.00;101288.03;5070016;28;20114;-60
2021/08/19 07:34:15;;;;;;;71.93;40.92;;;;;;;15.26;100.00;101283.53;5072750;28;20044;-60
2021/08/19 07:36:41;;;;;;;79.75;41.60;;;;;;;15.25;100.00;101287.09;5073774;28;20483;-62
2021/08/19 07:39:06;;;;;;;70.72;38.10;;;;;;;15.26;100.00;101284.44;5074079;28;20112;-60
2021/08/19 07:41:33;;;;;;;71.38;39.65;;;;;;;15.29;100.00;101292.38;5073093;28;20033;-61
2021/08/19 07:43:59;;;;;;;71.00;40.42;;;;;;;15.30;100.00;101285.28;5073345;28;20469;-62
2021/08/19 07:46:25;;;;;;;76.80;40.15;;;;;;;15.31;100.00;101287.03;5073143;28;20056;-61
2021/08/19 07:48:51;;;;;;;68.80;38.67;;;;;;;15.33;100.00;101291.47;5073338;28;20056;-61
2021/08/19 07:51:16;;;;;;;62.53;38.17;;;;;;;15.29;100.00;101296.81;5073181;28;20063;-61
2021/08/19 07:53:43;;;;;;;63.70;37.40;;;;;;;15.28;100.00;101297.72;5073552;28;20025;-61
2021/08/19 07:56:08;;;;;;;68.15;38.30;;;;;;;15.26;100.00;101296.84;5073380;28;20493;-62
2021/08/19 07:58:34;;;;;;;62.92;37.00;;;;;;;15.28;100.00;101295.94;5073555;28;20123;-62
2021/08/19 08:00:59;;;;;;;62.85;36.90;;;;;;;15.25;100.00;101295.97;5073126;28;20028;-64
2021/08/19 08:03:25;;;;;;;69.55;38.28;;;;;;;15.26;100.00;101296.84;5073287;28;20028;-63
2021/08/19 08:05:51;;;;;;;70.22;39.33;;;;;;;15.31;100.00;101305.69;5073127;28;20031;-64
2021/08/19 08:08:16;;;;;;;66.63;40.55;;;;;;;15.24;100.00;101307.50;5068932;28;20378;-64
2021/08/19 08:10:43;;;;;;;63.47;37.75;;;;;;;15.26;100.00;101300.41;5063234;28;20096;-65
2021/08/19 08:13:11;;;;;;;67.28;39.88;;;;;;;15.27;100.00;101306.59;5065289;28;20060;-63
2021/08/19 08:15:38;;;;;;;69.75;41.08;;;;;;;15.27;100.00;101301.28;5062352;28;20025;-63
2021/08/19 08:18:04;;;;;;;70.35;40.28;;;;;;;15.32;100.00;101307.47;5065671;28;20428;-64
2021/08/19 08:20:30;;;;;;;71.10;39.42;;;;;;;15.28;100.00;101305.72;5062612;28;20057;-64
2021/08/19 08:22:56;;;;;;;69.10;41.13;;;;;;;15.27;100.00;101311.94;5064981;28;20107;-64
2021/08/19 08:25:22;;;;;;;68.05;39.15;;;;;;;15.25;100.00;101306.63;5063364;28;20116;-63
2021/08/19 08:27:53;;;;;;;61.58;40.20;;;;;;;15.20;100.00;101304.88;5063827;28;20052;-65
2021/08/19 08:30:19;;;;;;;61.88;38.13;;;;;;;15.22;100.00;101308.41;5064028;28;20033;-63
2021/08/19 08:32:44;;;;;;;60.80;37.42;;;;;;;15.15;100.00;101305.78;5063587;28;20119;-64
2021/08/19 08:35:10;;;;;;;63.88;40.08;;;;;;;15.14;100.00;101316.47;5065092;28;20487;-66
2021/08/19 08:37:35;;;;;;;62.22;41.13;;;;;;;15.14;100.00;101312.03;5062284;28;20036;-64
2021/08/19 08:40:01;;;;;;;64.65;39.97;;;;;;;15.23;100.00;101313.75;5065509;28;20025;-64
2021/08/19 08:42:27;;;;;;;63.47;40.40;;;;;;;15.30;100.00;101318.13;5062735;28;20032;-64
2021/08/19 08:44:52;;;;;;;61.30;40.13;;;;;;;15.39;100.00;101318.94;5064604;28;20074;-65
2021/08/19 08:47:19;;;;;;;60.15;39.65;;;;;;;15.42;100.00;101317.16;5063350;28;20056;-65
2021/08/19 08:49:45;;;;;;;62.97;38.78;;;;;;;15.51;100.00;101322.38;5063294;28;20102;-66
2021/08/19 08:52:10;;;;;;;60.95;37.55;;;;;;;15.58;100.00;101317.91;5063817;28;20113;-65
2021/08/19 08:54:36;;;;;;;55.60;36.88;;;;;;;15.54;100.00;101310.81;5071818;28;20021;-65
2021/08/19 08:57:01;;;;;;;57.83;35.95;;;;;;;15.68;100.00;101321.34;5070658;28;20056;-65
2021/08/19 08:59:27;;;;;;;54.33;35.75;;;;;;;15.64;100.00;101327.59;5071980;28;20101;-64
2021/08/19 09:01:55;;;;;;;57.20;37.65;;;;;;;15.62;100.00;101330.28;5071962;28;20033;-65
2021/08/19 09:04:24;;;;;;;57.42;39.10;;;;;;;15.71;100.00;101331.09;5071323;28;20034;-63
2021/08/19 09:06:50;;;;;;;56.17;38.25;;;;;;;15.76;100.00;101335.50;5071405;28;20031;-66
2021/08/19 09:09:24;;;;;;;53.97;37.00;;;;;;;15.81;100.00;101338.13;5068725;28;20371;-65
2021/08/19 09:11:56;;;;;;;55.20;37.30;;;;;;;15.82;100.00;101340.78;5069583;28;20029;-65
2021/08/19 09:14:25;;;;;;;51.75;37.08;;;;;;;15.83;100.00;101334.56;5069681;28;20028;-64
2021/08/19 09:16:51;;;;;;;55.95;38.67;;;;;;;15.84;100.00;101338.09;5070509;28;20034;-65
2021/08/19 09:19:18;;;;;;;54.72;37.75;;;;;;;15.86;100.00;101342.53;5071517;28;20102;-64
2021/08/19 09:21:58;;;;;;;50.80;34.97;;;;;;;15.86;100.00;101339.00;5071942;28;20024;-64
2021/08/19 09:24:28;;;;;;;51.45;36.70;;;;;;;15.88;100.00;101342.53;5071785;28;20391;-64
2021/08/19 09:26:55;;;;;;;53.83;36.90;;;;;;;15.88;100.00;101342.53;5070477;28;20016;-64
2021/08/19 09:29:25;;;;;;;53.60;37.70;;;;;;;15.99;100.00;101343.31;5071396;28;20050;-65
2021/08/19 09:31:54;;;;;;;54.55;37.38;;;;;;;16.00;100.00;101338.84;5070996;28;20134;-61
2021/08/19 09:34:19;;;;;;;52.15;37.65;;;;;;;15.99;100.00;101351.31;5068163;28;20028;-61
2021/08/19 09:36:45;;;;;;;51.67;36.65;;;;;;;16.07;100.00;101342.34;5070940;28;20434;-60
2021/08/19 09:39:11;;;;;;;49.83;35.88;;;;;;;16.10;100.00;101342.31;5071749;28;20036;-60
2021/08/19 09:41:51;;;;;;;50.42;37.15;;;;;;;16.08;100.00;101344.13;5065959;28;20025;-61
2021/08/19 09:44:32;;;;;;;50.08;37.28;;;;;;;16.03;100.00;101347.72;5067722;28;20031;-61
2021/08/19 09:46:58;;;;;;;48.85;36.15;;;;;;;16.04;100.00;101354.78;5068319;28;20043;-62
2021/08/19 09:49:36;;;;;;;45.80;33.35;;;;;;;16.07;100.00;101345.00;5071016;28;20024;-61
2021/08/19 09:52:05;;;;;;;45.85;34.83;;;;;;;16.09;100.00;101338.75;5071292;28;20505;-61
2021/08/19 09:54:32;;;;;;;44.92;36.28;;;;;;;16.11;100.00;101339.63;5071092;28;20025;-60
2021/08/19 09:56:58;;;;;;;43.72;32.50;;;;;;;16.12;100.00;101343.16;5071021;28;20417;-61
2021/08/19 09:59:26;;;;;;;46.05;32.72;;;;;;;16.17;100.00;101338.66;5070797;28;20536;-61
2021/08/19 10:01:55;;;;;;;39.33;31.88;;;;;;;16.27;100.00;101332.34;5070855;28;20024;-61
2021/08/19 10:04:25;;;;;;;43.22;31.00;;;;;;;16.29;100.00;101341.19;5070893;28;20031;-60
2021/08/19 10:06:55;;;;;;;41.38;31.52;;;;;;;16.30;100.00;101336.75;5068215;28;20028;-61
2021/08/19 10:09:21;;;;;;;38.17;30.33;;;;;;;16.18;100.00;101336.00;5070935;28;20548;-61
2021/08/19 10:11:48;;;;;;;40.00;29.98;;;;;;;16.14;100.00;101336.03;5070988;28;20154;-61
2021/08/19 10:14:25;;;;;;;40.83;31.15;;;;;;;16.10;100.00;101332.50;5069810;28;20028;-61
2021/08/19 10:16:52;;;;;;;38.97;29.52;;;;;;;16.15;100.00;101340.44;5069835;28;20029;-61
2021/08/19 10:19:41;;;;;;;38.83;28.73;;;;;;;16.25;100.00;101334.16;5071074;28;20017;-61
2021/08/19 10:22:13;;;;;;;41.60;29.42;;;;;;;16.37;100.00;101334.00;5070994;28;20229;-62
2021/08/19 10:24:42;;;;;;;39.38;29.75;;;;;;;16.56;100.00;101337.31;5071462;28;20056;-63
2021/08/19 10:27:07;;;;;;;40.28;28.65;;;;;;;16.82;100.00;101330.75;5070301;28;20040;-61
2021/08/19 10:30:06;;;;;;;37.13;27.50;;;;;;;17.03;97.71;101339.38;5070489;28;20383;-63
2021/08/19 10:32:36;;;;;;;36.47;26.00;;;;;;;17.25;96.73;101335.47;5062031;28;20391;-64
2021/08/19 10:35:07;;;;;;;35.80;26.00;;;;;;;17.39;93.16;101337.94;5061788;28;20033;-62
2021/08/19 10:37:44;;;;;;;36.53;25.88;;;;;;;17.49;96.13;101333.34;5062357;28;20114;-64
2021/08/19 10:40:39;;;;;;;34.50;25.35;;;;;;;17.57;91.10;101336.75;5060432;28;20044;-64
2021/08/19 10:43:27;;;;;;;36.25;25.17;;;;;;;17.56;89.80;101334.09;5062867;28;20029;-64
2021/08/19 10:46:15;;;;;;;33.53;25.17;;;;;;;17.48;86.62;101322.66;5058029;28;20041;-64
2021/08/19 10:48:46;;;;;;;36.30;25.80;;;;;;;17.46;88.41;101325.38;5061460;28;20123;-65
2021/08/19 10:51:13;;;;;;;32.60;25.07;;;;;;;17.55;87.48;101329.69;5058062;28;20044;-64
2021/08/19 10:53:38;;;;;;;34.75;23.70;;;;;;;17.67;86.15;101324.09;5060670;28;20039;-65
2021/08/19 10:56:03;;;;;;;35.70;24.33;;;;;;;17.83;87.64;101326.53;5059593;28;20028;-65
2021/08/19 10:58:37;;;;;;;32.50;24.05;;;;;;;17.89;83.31;101321.03;5059682;28;20111;-64
2021/08/19 11:01:18;;;;;;;33.63;24.58;;;;;;;17.87;84.56;101320.22;5059398;28;20121;-64